sensor_id;sensor_type;location;lat;lon;timestamp;temperature;humidity
7159;DHT22;63175;52.374;13.132;2022-09-03T00:00:34;17.70;60.00
7159;DHT22;63175;52.374;13.132;2022-09-03T00:03:07;17.70;60.00
7159;DHT22;63175;52.374;13.132;2022-09-03T00:05:38;17.60;60.00
7159;DHT22;63175;52.374;13.132;2022-09-03T00:08:10;17.60;60.20
7159;DHT22;63175;52.374;13.132;2022-09-03T00:10:46;17.50;60.20
7159;DHT22;63175;52.374;13.132;2022-09-03T00:13:21;17.50;60.90
7159;DHT22;63175;52.374;13.132;2022-09-03T00:15:50;17.50;60.30
7159;DHT22;63175;52.374;13.132;2022-09-03T00:18:21;17.50;60.30
7159;DHT22;63175;52.374;13.132;2022-09-03T00:20:53;17.50;60.40
7159;DHT22;63175;52.374;13.132;2022-09-03T00:23:26;17.40;61.10
7159;DHT22;63175;52.374;13.132;2022-09-03T00:25:57;17.40;60.50
7159;DHT22;63175;52.374;13.132;2022-09-03T00:28:31;17.40;60.60
7159;DHT22;63175;52.374;13.132;2022-09-03T00:31:06;17.40;60.70
7159;DHT22;63175;52.374;13.132;2022-09-03T00:33:38;17.40;60.80
7159;DHT22;63175;52.374;13.132;2022-09-03T00:36:13;17.30;60.80
7159;DHT22;63175;52.374;13.132;2022-09-03T00:38:42;17.30;60.90
7159;DHT22;63175;52.374;13.132;2022-09-03T00:41:19;17.30;60.90
7159;DHT22;63175;52.374;13.132;2022-09-03T00:44:01;17.30;61.00
7159;DHT22;63175;52.374;13.132;2022-09-03T00:46:34;17.30;61.80
7159;DHT22;63175;52.374;13.132;2022-09-03T00:49:20;17.20;61.10
7159;DHT22;63175;52.374;13.132;2022-09-03T00:51:55;17.20;61.40
7159;DHT22;63175;52.374;13.132;2022-09-03T00:54:33;17.10;61.40
7159;DHT22;63175;52.374;13.132;2022-09-03T00:57:14;17.10;61.50
7159;DHT22;63175;52.374;13.132;2022-09-03T00:59:56;17.10;62.20
7159;DHT22;63175;52.374;13.132;2022-09-03T01:02:33;17.00;61.70
7159;DHT22;63175;52.374;13.132;2022-09-03T01:05:08;17.00;61.90
7159;DHT22;63175;52.374;13.132;2022-09-03T01:07:41;17.00;61.90
7159;DHT22;63175;52.374;13.132;2022-09-03T01:10:20;16.90;62.20
7159;DHT22;63175;52.374;13.132;2022-09-03T01:12:56;16.90;62.20
7159;DHT22;63175;52.374;13.132;2022-09-03T01:15:31;16.90;62.40
7159;DHT22;63175;52.374;13.132;2022-09-03T01:18:17;16.80;62.40
7159;DHT22;63175;52.374;13.132;2022-09-03T01:20:54;16.80;62.50
7159;DHT22;63175;52.374;13.132;2022-09-03T01:23:42;16.80;62.70
7159;DHT22;63175;52.374;13.132;2022-09-03T01:26:26;16.70;62.90
7159;DHT22;63175;52.374;13.132;2022-09-03T01:29:03;16.70;63.00
7159;DHT22;63175;52.374;13.132;2022-09-03T01:31:39;16.70;63.10
7159;DHT22;63175;52.374;13.132;2022-09-03T01:34:17;16.70;63.30
7159;DHT22;63175;52.374;13.132;2022-09-03T01:36:54;16.60;63.30
7159;DHT22;63175;52.374;13.132;2022-09-03T01:39:31;16.60;63.40
7159;DHT22;63175;52.374;13.132;2022-09-03T01:42:07;16.60;63.40
7159;DHT22;63175;52.374;13.132;2022-09-03T01:44:52;16.60;63.50
7159;DHT22;63175;52.374;13.132;2022-09-03T01:47:39;16.60;63.70
7159;DHT22;63175;52.374;13.132;2022-09-03T01:50:27;16.50;63.80
7159;DHT22;63175;52.374;13.132;2022-09-03T01:53:04;16.50;63.90
7159;DHT22;63175;52.374;13.132;2022-09-03T01:55:42;16.50;64.00
7159;DHT22;63175;52.374;13.132;2022-09-03T01:58:13;16.40;63.90
7159;DHT22;63175;52.374;13.132;2022-09-03T02:00:45;16.40;64.10
7159;DHT22;63175;52.374;13.132;2022-09-03T02:03:15;16.40;64.30
7159;DHT22;63175;52.374;13.132;2022-09-03T02:05:42;16.40;64.40
7159;DHT22;63175;52.374;13.132;2022-09-03T02:08:11;16.30;64.40
7159;DHT22;63175;52.374;13.132;2022-09-03T02:10:41;16.30;64.60
7159;DHT22;63175;52.374;13.132;2022-09-03T02:13:12;16.30;64.80
7159;DHT22;63175;52.374;13.132;2022-09-03T02:15:44;16.30;64.90
7159;DHT22;63175;52.374;13.132;2022-09-03T02:18:15;16.20;65.10
7159;DHT22;63175;52.374;13.132;2022-09-03T02:20:43;16.20;65.20
7159;DHT22;63175;52.374;13.132;2022-09-03T02:23:12;16.20;65.30
7159;DHT22;63175;52.374;13.132;2022-09-03T02:25:43;16.20;65.40
7159;DHT22;63175;52.374;13.132;2022-09-03T02:28:11;16.20;65.70
7159;DHT22;63175;52.374;13.132;2022-09-03T02:30:39;16.10;65.70
7159;DHT22;63175;52.374;13.132;2022-09-03T02:33:07;16.10;65.80
7159;DHT22;63175;52.374;13.132;2022-09-03T02:35:35;16.10;65.80
7159;DHT22;63175;52.374;13.132;2022-09-03T02:38:09;16.10;65.80
7159;DHT22;63175;52.374;13.132;2022-09-03T02:40:36;16.10;65.90
7159;DHT22;63175;52.374;13.132;2022-09-03T02:43:06;16.10;66.10
7159;DHT22;63175;52.374;13.132;2022-09-03T02:45:36;16.00;66.10
7159;DHT22;63175;52.374;13.132;2022-09-03T02:48:04;16.00;66.20
7159;DHT22;63175;52.374;13.132;2022-09-03T02:50:39;16.00;66.50
7159;DHT22;63175;52.374;13.132;2022-09-03T02:53:06;15.90;66.60
7159;DHT22;63175;52.374;13.132;2022-09-03T02:55:33;15.90;66.60
7159;DHT22;63175;52.374;13.132;2022-09-03T02:58:00;15.90;66.90
7159;DHT22;63175;52.374;13.132;2022-09-03T03:00:27;15.90;67.00
7159;DHT22;63175;52.374;13.132;2022-09-03T03:02:54;15.80;67.00
7159;DHT22;63175;52.374;13.132;2022-09-03T03:05:29;15.80;67.10
7159;DHT22;63175;52.374;13.132;2022-09-03T03:07:59;15.80;67.20
7159;DHT22;63175;52.374;13.132;2022-09-03T03:10:26;15.80;67.40
7159;DHT22;63175;52.374;13.132;2022-09-03T03:12:52;15.80;67.30
7159;DHT22;63175;52.374;13.132;2022-09-03T03:15:19;15.70;67.60
7159;DHT22;63175;52.374;13.132;2022-09-03T03:17:46;15.70;67.70
7159;DHT22;63175;52.374;13.132;2022-09-03T03:20:13;15.60;67.70
7159;DHT22;63175;52.374;13.132;2022-09-03T03:22:40;15.60;67.80
7159;DHT22;63175;52.374;13.132;2022-09-03T03:25:09;15.60;68.00
7159;DHT22;63175;52.374;13.132;2022-09-03T03:27:36;15.60;68.00
7159;DHT22;63175;52.374;13.132;2022-09-03T03:30:05;15.60;68.10
7159;DHT22;63175;52.374;13.132;2022-09-03T03:32:34;15.60;68.30
7159;DHT22;63175;52.374;13.132;2022-09-03T03:35:01;15.60;68.30
7159;DHT22;63175;52.374;13.132;2022-09-03T03:37:29;15.60;68.50
7159;DHT22;63175;52.374;13.132;2022-09-03T03:39:56;15.50;68.60
7159;DHT22;63175;52.374;13.132;2022-09-03T03:42:24;15.50;68.70
7159;DHT22;63175;52.374;13.132;2022-09-03T03:44:51;15.50;68.90
7159;DHT22;63175;52.374;13.132;2022-09-03T03:47:18;15.40;68.80
7159;DHT22;63175;52.374;13.132;2022-09-03T03:49:45;15.40;69.20
7159;DHT22;63175;52.374;13.132;2022-09-03T03:52:11;15.40;69.20
7159;DHT22;63175;52.374;13.132;2022-09-03T03:54:38;15.40;69.30
7159;DHT22;63175;52.374;13.132;2022-09-03T03:57:05;15.30;69.30
7159;DHT22;63175;52.374;13.132;2022-09-03T03:59:33;15.30;69.40
7159;DHT22;63175;52.374;13.132;2022-09-03T04:02:00;15.30;69.50
7159;DHT22;63175;52.374;13.132;2022-09-03T04:04:27;15.30;69.60
7159;DHT22;63175;52.374;13.132;2022-09-03T04:06:54;15.30;69.80
7159;DHT22;63175;52.374;13.132;2022-09-03T04:09:21;15.30;69.70
7159;DHT22;63175;52.374;13.132;2022-09-03T04:11:48;15.30;70.00
7159;DHT22;63175;52.374;13.132;2022-09-03T04:14:15;15.30;70.20
7159;DHT22;63175;52.374;13.132;2022-09-03T04:16:44;15.20;70.30
7159;DHT22;63175;52.374;13.132;2022-09-03T04:19:11;15.20;70.30
7159;DHT22;63175;52.374;13.132;2022-09-03T04:21:39;15.20;70.50
7159;DHT22;63175;52.374;13.132;2022-09-03T04:24:06;15.20;70.50
7159;DHT22;63175;52.374;13.132;2022-09-03T04:26:33;15.20;70.80
7159;DHT22;63175;52.374;13.132;2022-09-03T04:29:02;15.10;70.70
7159;DHT22;63175;52.374;13.132;2022-09-03T04:31:30;15.10;71.10
7159;DHT22;63175;52.374;13.132;2022-09-03T04:33:59;15.10;71.20
7159;DHT22;63175;52.374;13.132;2022-09-03T04:36:27;15.10;71.40
7159;DHT22;63175;52.374;13.132;2022-09-03T04:38:58;15.10;71.50
7159;DHT22;63175;52.374;13.132;2022-09-03T04:41:27;15.10;71.70
7159;DHT22;63175;52.374;13.132;2022-09-03T04:43:56;15.10;71.70
7159;DHT22;63175;52.374;13.132;2022-09-03T04:46:24;15.10;72.50
7159;DHT22;63175;52.374;13.132;2022-09-03T04:48:53;15.10;71.90
7159;DHT22;63175;52.374;13.132;2022-09-03T04:51:25;15.10;72.00
7159;DHT22;63175;52.374;13.132;2022-09-03T04:53:54;15.10;72.10
7159;DHT22;63175;52.374;13.132;2022-09-03T04:56:23;15.10;72.20
7159;DHT22;63175;52.374;13.132;2022-09-03T04:58:54;15.10;72.40
7159;DHT22;63175;52.374;13.132;2022-09-03T05:01:23;15.10;72.40
7159;DHT22;63175;52.374;13.132;2022-09-03T05:03:51;15.10;72.30
7159;DHT22;63175;52.374;13.132;2022-09-03T05:06:18;15.10;72.20
7159;DHT22;63175;52.374;13.132;2022-09-03T05:08:48;15.20;72.40
7159;DHT22;63175;52.374;13.132;2022-09-03T05:11:15;15.10;72.50
7159;DHT22;63175;52.374;13.132;2022-09-03T05:13:42;15.10;72.50
7159;DHT22;63175;52.374;13.132;2022-09-03T05:16:10;15.20;72.60
7159;DHT22;63175;52.374;13.132;2022-09-03T05:18:37;15.20;72.60
7159;DHT22;63175;52.374;13.132;2022-09-03T05:21:09;15.20;72.80
7159;DHT22;63175;52.374;13.132;2022-09-03T05:23:37;15.10;72.70
7159;DHT22;63175;52.374;13.132;2022-09-03T05:26:08;15.10;72.90
7159;DHT22;63175;52.374;13.132;2022-09-03T05:28:37;15.20;73.20
7159;DHT22;63175;52.374;13.132;2022-09-03T05:31:06;15.10;73.20
7159;DHT22;63175;52.374;13.132;2022-09-03T05:33:35;15.10;73.40
7159;DHT22;63175;52.374;13.132;2022-09-03T05:36:03;15.10;73.40
7159;DHT22;63175;52.374;13.132;2022-09-03T05:38:31;15.10;73.50
7159;DHT22;63175;52.374;13.132;2022-09-03T05:40:58;15.20;73.60
7159;DHT22;63175;52.374;13.132;2022-09-03T05:43:27;15.20;73.70
7159;DHT22;63175;52.374;13.132;2022-09-03T05:45:56;15.20;73.70
7159;DHT22;63175;52.374;13.132;2022-09-03T05:48:25;15.20;73.80
7159;DHT22;63175;52.374;13.132;2022-09-03T05:50:58;15.20;74.10
7159;DHT22;63175;52.374;13.132;2022-09-03T05:53:26;15.20;74.20
7159;DHT22;63175;52.374;13.132;2022-09-03T05:55:56;15.20;74.30
7159;DHT22;63175;52.374;13.132;2022-09-03T05:58:24;15.20;74.40
7159;DHT22;63175;52.374;13.132;2022-09-03T06:00:52;15.20;74.50
7159;DHT22;63175;52.374;13.132;2022-09-03T06:03:19;15.30;74.60
7159;DHT22;63175;52.374;13.132;2022-09-03T06:05:49;15.30;74.60
7159;DHT22;63175;52.374;13.132;2022-09-03T06:08:17;15.30;74.80
7159;DHT22;63175;52.374;13.132;2022-09-03T06:10:44;15.30;74.90
7159;DHT22;63175;52.374;13.132;2022-09-03T06:13:11;15.30;75.00
7159;DHT22;63175;52.374;13.132;2022-09-03T06:15:38;15.30;75.20
7159;DHT22;63175;52.374;13.132;2022-09-03T06:18:06;15.30;75.40
7159;DHT22;63175;52.374;13.132;2022-09-03T06:20:33;15.30;75.50
7159;DHT22;63175;52.374;13.132;2022-09-03T06:23:00;15.30;75.60
7159;DHT22;63175;52.374;13.132;2022-09-03T06:25:27;15.40;75.90
7159;DHT22;63175;52.374;13.132;2022-09-03T06:27:54;15.40;76.00
7159;DHT22;63175;52.374;13.132;2022-09-03T06:30:21;15.40;76.10
7159;DHT22;63175;52.374;13.132;2022-09-03T06:32:49;15.50;76.20
7159;DHT22;63175;52.374;13.132;2022-09-03T06:35:18;15.50;76.50
7159;DHT22;63175;52.374;13.132;2022-09-03T06:37:45;15.50;76.30
7159;DHT22;63175;52.374;13.132;2022-09-03T06:40:12;15.50;76.50
7159;DHT22;63175;52.374;13.132;2022-09-03T06:42:54;15.50;76.60
7159;DHT22;63175;52.374;13.132;2022-09-03T06:45:26;15.50;76.80
7159;DHT22;63175;52.374;13.132;2022-09-03T06:47:53;15.50;76.80
7159;DHT22;63175;52.374;13.132;2022-09-03T06:50:22;15.60;77.20
7159;DHT22;63175;52.374;13.132;2022-09-03T06:52:50;15.60;77.30
7159;DHT22;63175;52.374;13.132;2022-09-03T06:55:19;15.60;77.50
7159;DHT22;63175;52.374;13.132;2022-09-03T06:57:46;15.60;77.70
7159;DHT22;63175;52.374;13.132;2022-09-03T07:00:14;15.60;77.70
7159;DHT22;63175;52.374;13.132;2022-09-03T07:02:41;15.70;77.90
7159;DHT22;63175;52.374;13.132;2022-09-03T07:05:09;15.70;77.90
7159;DHT22;63175;52.374;13.132;2022-09-03T07:07:38;15.70;77.80
7159;DHT22;63175;52.374;13.132;2022-09-03T07:10:05;15.80;78.00
7159;DHT22;63175;52.374;13.132;2022-09-03T07:12:36;15.80;78.20
7159;DHT22;63175;52.374;13.132;2022-09-03T07:15:03;15.80;78.20
7159;DHT22;63175;52.374;13.132;2022-09-03T07:17:30;15.90;78.40
7159;DHT22;63175;52.374;13.132;2022-09-03T07:19:57;16.00;78.50
7159;DHT22;63175;52.374;13.132;2022-09-03T07:22:24;16.00;78.50
7159;DHT22;63175;52.374;13.132;2022-09-03T07:24:52;16.10;78.70
7159;DHT22;63175;52.374;13.132;2022-09-03T07:27:19;16.20;78.80
7159;DHT22;63175;52.374;13.132;2022-09-03T07:29:46;16.30;78.80
7159;DHT22;63175;52.374;13.132;2022-09-03T07:32:12;16.30;78.60
7159;DHT22;63175;52.374;13.132;2022-09-03T07:34:39;16.40;78.50
7159;DHT22;63175;52.374;13.132;2022-09-03T07:37:06;16.50;78.50
7159;DHT22;63175;52.374;13.132;2022-09-03T07:39:33;16.50;78.20
7159;DHT22;63175;52.374;13.132;2022-09-03T07:42:02;16.50;78.10
7159;DHT22;63175;52.374;13.132;2022-09-03T07:44:29;16.60;78.30
7159;DHT22;63175;52.374;13.132;2022-09-03T07:46:56;16.60;78.10
7159;DHT22;63175;52.374;13.132;2022-09-03T07:49:22;16.60;78.10
7159;DHT22;63175;52.374;13.132;2022-09-03T07:51:50;16.70;78.10
7159;DHT22;63175;52.374;13.132;2022-09-03T07:54:19;16.70;78.00
7159;DHT22;63175;52.374;13.132;2022-09-03T07:56:46;16.70;77.90
7159;DHT22;63175;52.374;13.132;2022-09-03T07:59:15;16.80;78.20
7159;DHT22;63175;52.374;13.132;2022-09-03T08:01:41;16.90;78.40
7159;DHT22;63175;52.374;13.132;2022-09-03T08:04:08;16.90;78.20
7159;DHT22;63175;52.374;13.132;2022-09-03T08:06:37;16.90;78.00
7159;DHT22;63175;52.374;13.132;2022-09-03T08:09:06;17.00;78.20
7159;DHT22;63175;52.374;13.132;2022-09-03T08:11:35;17.00;78.00
7159;DHT22;63175;52.374;13.132;2022-09-03T08:14:04;17.10;77.90
7159;DHT22;63175;52.374;13.132;2022-09-03T08:16:34;17.10;77.90
7159;DHT22;63175;52.374;13.132;2022-09-03T08:19:02;17.20;77.90
7159;DHT22;63175;52.374;13.132;2022-09-03T08:21:28;17.40;78.30
7159;DHT22;63175;52.374;13.132;2022-09-03T08:23:56;17.50;78.30
7159;DHT22;63175;52.374;13.132;2022-09-03T08:26:28;17.70;77.70
7159;DHT22;63175;52.374;13.132;2022-09-03T08:28:55;17.90;76.70
7159;DHT22;63175;52.374;13.132;2022-09-03T08:31:23;18.10;76.40
7159;DHT22;63175;52.374;13.132;2022-09-03T08:33:53;18.40;75.50
7159;DHT22;63175;52.374;13.132;2022-09-03T08:36:22;18.60;74.70
7159;DHT22;63175;52.374;13.132;2022-09-03T08:38:50;18.80;74.70
7159;DHT22;63175;52.374;13.132;2022-09-03T08:41:22;19.00;74.10
7159;DHT22;63175;52.374;13.132;2022-09-03T08:44:02;19.30;73.00
7159;DHT22;63175;52.374;13.132;2022-09-03T08:46:40;19.60;72.40
7159;DHT22;63175;52.374;13.132;2022-09-03T08:49:12;19.80;71.90
7159;DHT22;63175;52.374;13.132;2022-09-03T08:51:41;20.00;71.80
7159;DHT22;63175;52.374;13.132;2022-09-03T08:54:09;20.30;71.00
7159;DHT22;63175;52.374;13.132;2022-09-03T08:56:39;20.60;70.40
7159;DHT22;63175;52.374;13.132;2022-09-03T08:59:07;20.80;69.10
7159;DHT22;63175;52.374;13.132;2022-09-03T09:01:42;21.00;68.00
7159;DHT22;63175;52.374;13.132;2022-09-03T09:04:22;21.30;67.20
7159;DHT22;63175;52.374;13.132;2022-09-03T09:06:57;21.50;66.50
7159;DHT22;63175;52.374;13.132;2022-09-03T09:09:30;21.70;65.10
7159;DHT22;63175;52.374;13.132;2022-09-03T09:12:08;22.00;63.60
7159;DHT22;63175;52.374;13.132;2022-09-03T09:14:42;22.10;63.00
7159;DHT22;63175;52.374;13.132;2022-09-03T09:17:28;22.30;61.50
7159;DHT22;63175;52.374;13.132;2022-09-03T09:20:05;22.50;61.50
7159;DHT22;63175;52.374;13.132;2022-09-03T09:22:37;22.70;59.30
7159;DHT22;63175;52.374;13.132;2022-09-03T09:25:09;22.80;58.50
7159;DHT22;63175;52.374;13.132;2022-09-03T09:27:44;22.90;58.10
7159;DHT22;63175;52.374;13.132;2022-09-03T09:30:15;23.00;58.40
7159;DHT22;63175;52.374;13.132;2022-09-03T09:32:42;23.20;58.50
7159;DHT22;63175;52.374;13.132;2022-09-03T09:35:11;23.30;58.10
7159;DHT22;63175;52.374;13.132;2022-09-03T09:37:46;23.40;57.50
7159;DHT22;63175;52.374;13.132;2022-09-03T09:40:26;23.50;57.80
7159;DHT22;63175;52.374;13.132;2022-09-03T09:43:05;23.70;56.60
7159;DHT22;63175;52.374;13.132;2022-09-03T09:45:35;23.80;54.60
7159;DHT22;63175;52.374;13.132;2022-09-03T09:48:08;23.90;54.70
7159;DHT22;63175;52.374;13.132;2022-09-03T09:50:37;23.90;54.30
7159;DHT22;63175;52.374;13.132;2022-09-03T09:53:06;24.00;53.70
7159;DHT22;63175;52.374;13.132;2022-09-03T09:55:48;24.00;54.20
7159;DHT22;63175;52.374;13.132;2022-09-03T09:58:19;24.10;53.80
7159;DHT22;63175;52.374;13.132;2022-09-03T10:00:58;24.20;53.60
7159;DHT22;63175;52.374;13.132;2022-09-03T10:03:29;24.20;50.70
7159;DHT22;63175;52.374;13.132;2022-09-03T10:06:06;24.20;51.20
7159;DHT22;63175;52.374;13.132;2022-09-03T10:08:51;24.20;51.10
7159;DHT22;63175;52.374;13.132;2022-09-03T10:11:20;24.20;51.70
7159;DHT22;63175;52.374;13.132;2022-09-03T10:13:52;24.30;51.70
7159;DHT22;63175;52.374;13.132;2022-09-03T10:16:26;24.30;50.60
7159;DHT22;63175;52.374;13.132;2022-09-03T10:19:00;24.30;48.40
7159;DHT22;63175;52.374;13.132;2022-09-03T10:21:35;24.30;48.00
7159;DHT22;63175;52.374;13.132;2022-09-03T10:24:14;24.30;46.80
7159;DHT22;63175;52.374;13.132;2022-09-03T10:26:45;24.20;45.50
7159;DHT22;63175;52.374;13.132;2022-09-03T10:29:16;24.00;44.70
7159;DHT22;63175;52.374;13.132;2022-09-03T10:32:02;23.90;45.60
7159;DHT22;63175;52.374;13.132;2022-09-03T10:34:40;23.80;47.20
7159;DHT22;63175;52.374;13.132;2022-09-03T10:37:17;23.80;47.40
7159;DHT22;63175;52.374;13.132;2022-09-03T10:40:00;23.80;46.30
7159;DHT22;63175;52.374;13.132;2022-09-03T10:42:36;23.80;43.70
7159;DHT22;63175;52.374;13.132;2022-09-03T10:45:17;23.70;42.80
7159;DHT22;63175;52.374;13.132;2022-09-03T10:50:46;23.70;42.40
7159;DHT22;63175;52.374;13.132;2022-09-03T10:53:28;23.70;42.50
7159;DHT22;63175;52.374;13.132;2022-09-03T10:56:00;23.70;42.20
7159;DHT22;63175;52.374;13.132;2022-09-03T10:58:41;23.50;42.30
7159;DHT22;63175;52.374;13.132;2022-09-03T11:01:17;23.40;42.90
7159;DHT22;63175;52.374;13.132;2022-09-03T11:03:50;23.20;43.60
7159;DHT22;63175;52.374;13.132;2022-09-03T11:06:24;23.10;44.10
7159;DHT22;63175;52.374;13.132;2022-09-03T11:08:58;23.00;43.90
7159;DHT22;63175;52.374;13.132;2022-09-03T11:11:31;22.90;44.10
7159;DHT22;63175;52.374;13.132;2022-09-03T11:14:05;22.80;44.30
7159;DHT22;63175;52.374;13.132;2022-09-03T11:16:37;22.70;44.80
7159;DHT22;63175;52.374;13.132;2022-09-03T11:19:08;22.60;45.20
7159;DHT22;63175;52.374;13.132;2022-09-03T11:21:37;22.50;45.40
7159;DHT22;63175;52.374;13.132;2022-09-03T11:24:11;22.40;45.70
7159;DHT22;63175;52.374;13.132;2022-09-03T11:26:41;22.40;45.50
7159;DHT22;63175;52.374;13.132;2022-09-03T11:29:11;22.40;45.60
7159;DHT22;63175;52.374;13.132;2022-09-03T11:31:55;22.40;45.70
7159;DHT22;63175;52.374;13.132;2022-09-03T11:34:29;22.30;45.70
7159;DHT22;63175;52.374;13.132;2022-09-03T11:37:16;22.30;45.70
7159;DHT22;63175;52.374;13.132;2022-09-03T11:39:51;22.20;46.10
7159;DHT22;63175;52.374;13.132;2022-09-03T11:42:27;22.30;46.60
7159;DHT22;63175;52.374;13.132;2022-09-03T11:44:59;22.30;46.30
7159;DHT22;63175;52.374;13.132;2022-09-03T11:47:39;22.30;46.20
7159;DHT22;63175;52.374;13.132;2022-09-03T11:50:14;22.20;46.20
7159;DHT22;63175;52.374;13.132;2022-09-03T11:52:45;22.20;46.30
7159;DHT22;63175;52.374;13.132;2022-09-03T11:55:25;22.30;46.80
7159;DHT22;63175;52.374;13.132;2022-09-03T11:57:54;22.30;46.60
7159;DHT22;63175;52.374;13.132;2022-09-03T12:00:22;22.40;46.10
7159;DHT22;63175;52.374;13.132;2022-09-03T12:02:54;22.50;46.60
7159;DHT22;63175;52.374;13.132;2022-09-03T12:05:27;22.70;46.10
7159;DHT22;63175;52.374;13.132;2022-09-03T12:08:20;22.80;45.70
7159;DHT22;63175;52.374;13.132;2022-09-03T12:11:02;22.80;45.80
7159;DHT22;63175;52.374;13.132;2022-09-03T12:13:46;22.90;46.50
7159;DHT22;63175;52.374;13.132;2022-09-03T12:16:40;22.90;46.10
7159;DHT22;63175;52.374;13.132;2022-09-03T12:19:19;23.00;46.00
7159;DHT22;63175;52.374;13.132;2022-09-03T12:21:48;23.10;45.80
7159;DHT22;63175;52.374;13.132;2022-09-03T12:24:15;23.20;45.70
7159;DHT22;63175;52.374;13.132;2022-09-03T12:26:44;23.20;45.80
7159;DHT22;63175;52.374;13.132;2022-09-03T12:29:23;23.30;45.90
7159;DHT22;63175;52.374;13.132;2022-09-03T12:31:50;23.30;45.20
7159;DHT22;63175;52.374;13.132;2022-09-03T12:34:19;23.40;45.50
7159;DHT22;63175;52.374;13.132;2022-09-03T12:36:48;23.50;45.00
7159;DHT22;63175;52.374;13.132;2022-09-03T12:39:17;23.50;45.00
7159;DHT22;63175;52.374;13.132;2022-09-03T12:41:57;23.60;44.60
7159;DHT22;63175;52.374;13.132;2022-09-03T12:44:26;23.60;44.30
7159;DHT22;63175;52.374;13.132;2022-09-03T12:47:06;23.70;44.30
7159;DHT22;63175;52.374;13.132;2022-09-03T12:49:38;23.70;44.40
7159;DHT22;63175;52.374;13.132;2022-09-03T12:52:12;23.80;44.30
7159;DHT22;63175;52.374;13.132;2022-09-03T12:54:46;23.80;44.20
7159;DHT22;63175;52.374;13.132;2022-09-03T12:57:20;23.80;44.00
7159;DHT22;63175;52.374;13.132;2022-09-03T12:59:49;23.80;43.80
7159;DHT22;63175;52.374;13.132;2022-09-03T13:02:20;23.80;43.70
7159;DHT22;63175;52.374;13.132;2022-09-03T13:04:48;23.70;43.60
7159;DHT22;63175;52.374;13.132;2022-09-03T13:07:26;23.70;44.00
7159;DHT22;63175;52.374;13.132;2022-09-03T13:10:00;23.70;44.00
7159;DHT22;63175;52.374;13.132;2022-09-03T13:12:32;23.70;44.00
7159;DHT22;63175;52.374;13.132;2022-09-03T13:15:06;23.80;44.00
7159;DHT22;63175;52.374;13.132;2022-09-03T13:17:47;23.80;43.70
7159;DHT22;63175;52.374;13.132;2022-09-03T13:20:27;23.90;44.10
7159;DHT22;63175;52.374;13.132;2022-09-03T13:23:13;23.90;44.50
7159;DHT22;63175;52.374;13.132;2022-09-03T13:25:49;24.00;44.80
7159;DHT22;63175;52.374;13.132;2022-09-03T13:28:29;24.10;43.80
7159;DHT22;63175;52.374;13.132;2022-09-03T13:31:07;24.10;43.70
7159;DHT22;63175;52.374;13.132;2022-09-03T13:33:40;24.20;43.80
7159;DHT22;63175;52.374;13.132;2022-09-03T13:36:13;24.30;43.80
7159;DHT22;63175;52.374;13.132;2022-09-03T13:38:45;24.40;44.40
7159;DHT22;63175;52.374;13.132;2022-09-03T13:41:19;24.50;44.00
7159;DHT22;63175;52.374;13.132;2022-09-03T13:43:58;24.70;44.30
7159;DHT22;63175;52.374;13.132;2022-09-03T13:46:33;24.80;43.90
7159;DHT22;63175;52.374;13.132;2022-09-03T13:49:08;24.90;44.30
7159;DHT22;63175;52.374;13.132;2022-09-03T13:51:58;25.00;43.80
7159;DHT22;63175;52.374;13.132;2022-09-03T13:54:28;25.10;43.40
7159;DHT22;63175;52.374;13.132;2022-09-03T13:57:00;25.30;43.40
7159;DHT22;63175;52.374;13.132;2022-09-03T13:59:34;25.40;42.90
7159;DHT22;63175;52.374;13.132;2022-09-03T14:02:19;25.40;42.20
7159;DHT22;63175;52.374;13.132;2022-09-03T14:04:57;25.30;41.70
7159;DHT22;63175;52.374;13.132;2022-09-03T14:07:40;25.20;42.00
7159;DHT22;63175;52.374;13.132;2022-09-03T14:10:18;25.00;42.50
7159;DHT22;63175;52.374;13.132;2022-09-03T14:12:52;24.90;43.00
7159;DHT22;63175;52.374;13.132;2022-09-03T14:15:26;24.90;42.70
7159;DHT22;63175;52.374;13.132;2022-09-03T14:18:00;25.00;42.90
7159;DHT22;63175;52.374;13.132;2022-09-03T14:20:30;25.10;42.50
7159;DHT22;63175;52.374;13.132;2022-09-03T14:23:04;25.30;42.30
7159;DHT22;63175;52.374;13.132;2022-09-03T14:25:33;25.50;42.20
7159;DHT22;63175;52.374;13.132;2022-09-03T14:28:14;25.60;41.80
7159;DHT22;63175;52.374;13.132;2022-09-03T14:31:09;25.80;41.60
7159;DHT22;63175;52.374;13.132;2022-09-03T14:33:43;25.90;41.20
7159;DHT22;63175;52.374;13.132;2022-09-03T14:36:23;26.00;41.30
7159;DHT22;63175;52.374;13.132;2022-09-03T14:39:11;26.00;41.30
7159;DHT22;63175;52.374;13.132;2022-09-03T14:41:57;26.00;40.90
7159;DHT22;63175;52.374;13.132;2022-09-03T14:44:58;26.00;40.80
7159;DHT22;63175;52.374;13.132;2022-09-03T14:47:37;25.90;40.90
7159;DHT22;63175;52.374;13.132;2022-09-03T14:50:27;25.90;41.10
7159;DHT22;63175;52.374;13.132;2022-09-03T14:56:25;25.80;40.90
7159;DHT22;63175;52.374;13.132;2022-09-03T14:59:07;25.80;41.10
7159;DHT22;63175;52.374;13.132;2022-09-03T15:01:38;25.70;41.10
7159;DHT22;63175;52.374;13.132;2022-09-03T15:04:34;25.70;41.30
7159;DHT22;63175;52.374;13.132;2022-09-03T15:07:15;25.60;41.10
7159;DHT22;63175;52.374;13.132;2022-09-03T15:09:51;25.50;41.20
7159;DHT22;63175;52.374;13.132;2022-09-03T15:12:24;25.40;41.20
7159;DHT22;63175;52.374;13.132;2022-09-03T15:14:56;25.20;41.20
7159;DHT22;63175;52.374;13.132;2022-09-03T15:17:45;25.10;41.50
7159;DHT22;63175;52.374;13.132;2022-09-03T15:20:23;24.90;41.90
7159;DHT22;63175;52.374;13.132;2022-09-03T15:23:08;24.70;42.30
7159;DHT22;63175;52.374;13.132;2022-09-03T15:25:50;24.60;42.70
7159;DHT22;63175;52.374;13.132;2022-09-03T15:28:28;24.50;42.70
7159;DHT22;63175;52.374;13.132;2022-09-03T15:31:02;24.40;42.90
7159;DHT22;63175;52.374;13.132;2022-09-03T15:33:34;24.40;43.20
7159;DHT22;63175;52.374;13.132;2022-09-03T15:36:12;24.40;43.50
7159;DHT22;63175;52.374;13.132;2022-09-03T15:38:47;24.40;43.40
7159;DHT22;63175;52.374;13.132;2022-09-03T15:41:28;24.40;43.20
7159;DHT22;63175;52.374;13.132;2022-09-03T15:43:58;24.40;43.10
7159;DHT22;63175;52.374;13.132;2022-09-03T15:46:37;24.30;42.70
7159;DHT22;63175;52.374;13.132;2022-09-03T15:49:09;24.30;43.10
7159;DHT22;63175;52.374;13.132;2022-09-03T15:51:58;24.20;43.20
7159;DHT22;63175;52.374;13.132;2022-09-03T15:54:31;24.00;43.20
7159;DHT22;63175;52.374;13.132;2022-09-03T15:57:05;24.00;43.50
7159;DHT22;63175;52.374;13.132;2022-09-03T15:59:39;23.90;43.80
7159;DHT22;63175;52.374;13.132;2022-09-03T16:02:09;23.80;43.90
7159;DHT22;63175;52.374;13.132;2022-09-03T16:04:49;23.70;44.00
7159;DHT22;63175;52.374;13.132;2022-09-03T16:07:23;23.60;44.10
7159;DHT22;63175;52.374;13.132;2022-09-03T16:09:59;23.50;44.40